createdAt,value
2019-03-19T00:00:30.527Z,7.13
2019-03-19T00:03:01.351Z,6.73
2019-03-19T00:05:37.224Z,6.80
2019-03-19T00:08:08.051Z,6.27
2019-03-19T00:10:43.234Z,7.40
2019-03-19T00:13:14.432Z,7.03
2019-03-19T00:15:46.746Z,7.17
2019-03-19T00:18:17.569Z,6.50
2019-03-19T00:20:48.380Z,6.60
2019-03-19T00:23:20.841Z,7.23
2019-03-19T00:25:53.216Z,7.40
2019-03-19T00:28:27.310Z,6.77
2019-03-19T00:30:58.066Z,7.53
2019-03-19T00:33:28.957Z,8.13
2019-03-19T00:36:00.050Z,6.90
2019-03-19T00:38:30.900Z,7.83
2019-03-19T00:41:01.699Z,7.73
2019-03-19T00:43:32.571Z,7.63
2019-03-19T00:46:06.408Z,7.57
2019-03-19T00:48:37.633Z,7.67
2019-03-19T00:51:08.433Z,7.60
2019-03-19T00:53:40.016Z,8.00
2019-03-19T00:56:10.860Z,7.13
2019-03-19T00:58:47.429Z,8.00
2019-03-19T01:01:18.226Z,8.33
2019-03-19T01:03:49.585Z,7.90
2019-03-19T01:06:20.333Z,7.67
2019-03-19T01:08:51.188Z,7.40
2019-03-19T01:11:26.924Z,6.53
2019-03-19T01:14:01.567Z,6.97
2019-03-19T01:16:33.525Z,6.67
2019-03-19T01:19:04.759Z,6.70
2019-03-19T01:21:35.594Z,6.33
2019-03-19T01:24:10.968Z,7.50
2019-03-19T01:26:41.746Z,6.50
2019-03-19T01:29:12.690Z,6.93
2019-03-19T01:31:44.995Z,7.07
2019-03-19T01:34:24.137Z,7.00
2019-03-19T01:36:54.550Z,7.27
2019-03-19T01:39:26.064Z,6.33
2019-03-19T01:41:58.135Z,7.53
2019-03-19T01:44:30.827Z,6.63
2019-03-19T01:47:07.254Z,7.00
2019-03-19T01:49:39.231Z,7.00
2019-03-19T01:52:10.188Z,6.73
2019-03-19T01:54:41.955Z,6.70
2019-03-19T01:57:12.791Z,6.20
2019-03-19T01:59:46.550Z,6.83
2019-03-19T02:02:17.673Z,6.00
2019-03-19T02:04:49.036Z,5.90
2019-03-19T02:07:19.872Z,5.63
2019-03-19T02:09:50.737Z,6.00
2019-03-19T02:12:21.619Z,6.87
2019-03-19T02:14:52.884Z,6.63
2019-03-19T02:17:23.713Z,6.30
2019-03-19T02:20:00.438Z,5.83
2019-03-19T02:22:31.506Z,5.93
2019-03-19T02:25:02.370Z,5.27
2019-03-19T02:27:45.496Z,5.60
2019-03-19T02:30:17.377Z,5.93
2019-03-19T02:32:48.183Z,5.80
2019-03-19T02:35:19.041Z,5.30
2019-03-19T02:37:49.886Z,4.93
2019-03-19T02:40:20.666Z,6.03
2019-03-19T02:42:52.033Z,5.63
2019-03-19T02:45:22.920Z,4.80
2019-03-19T02:47:53.805Z,5.03
2019-03-19T02:50:26.119Z,5.63
2019-03-19T02:52:57.986Z,5.37
2019-03-19T02:55:28.842Z,5.90
2019-03-19T02:58:00.052Z,5.40
2019-03-19T03:00:30.858Z,6.73
2019-03-19T03:03:01.758Z,5.70
2019-03-19T03:05:32.858Z,5.20
2019-03-19T03:08:04.645Z,4.97
2019-03-19T03:10:35.446Z,5.30
2019-03-19T03:13:12.051Z,6.13
2019-03-19T03:15:44.350Z,6.30
2019-03-19T03:18:15.187Z,5.77
2019-03-19T03:20:46.254Z,5.33
2019-03-19T03:23:17.143Z,5.30
2019-03-19T03:25:47.929Z,5.10
2019-03-19T03:28:19.171Z,4.73
2019-03-19T03:30:49.998Z,4.97
2019-03-19T03:33:24.281Z,5.30
2019-03-19T03:35:55.686Z,4.77
2019-03-19T03:38:26.580Z,5.83
2019-03-19T03:41:03.827Z,4.70
2019-03-19T03:43:35.914Z,4.90
2019-03-19T03:46:07.030Z,4.60
2019-03-19T03:48:38.257Z,4.70
2019-03-19T03:51:10.136Z,3.93
2019-03-19T03:53:40.952Z,4.87
2019-03-19T03:56:12.019Z,4.53
2019-03-19T03:58:43.253Z,4.10
2019-03-19T04:01:14.343Z,4.17
2019-03-19T04:03:45.125Z,4.30
2019-03-19T04:06:15.965Z,3.97
2019-03-19T04:08:46.730Z,4.50
2019-03-19T04:11:17.567Z,4.43
2019-03-19T04:13:48.417Z,4.47
2019-03-19T04:16:19.506Z,4.27
2019-03-19T04:18:50.359Z,3.40
2019-03-19T04:21:21.228Z,4.47
2019-03-19T04:23:54.987Z,3.80
2019-03-19T04:26:25.852Z,4.00
2019-03-19T04:28:56.690Z,4.20
2019-03-19T04:31:27.875Z,3.77
2019-03-19T04:33:58.745Z,3.10
2019-03-19T04:36:30.722Z,3.63
2019-03-19T04:39:01.755Z,3.67
2019-03-19T04:41:33.639Z,3.63
2019-03-19T04:44:05.056Z,4.07
2019-03-19T04:46:37.135Z,3.80
2019-03-19T04:49:08.456Z,3.97
2019-03-19T04:51:39.352Z,4.80
2019-03-19T04:54:10.195Z,4.00
2019-03-19T04:56:41.072Z,3.83
2019-03-19T04:59:11.941Z,3.97
2019-03-19T05:01:42.746Z,3.23
2019-03-19T05:04:13.617Z,4.07
2019-03-19T05:06:44.467Z,3.53
2019-03-19T05:09:15.526Z,5.23
2019-03-19T05:11:46.735Z,4.23
2019-03-19T05:14:17.533Z,4.27
2019-03-19T05:16:48.349Z,4.87
2019-03-19T05:19:20.013Z,5.63
2019-03-19T05:21:50.847Z,4.93
2019-03-19T05:24:21.616Z,4.63
2019-03-19T05:26:55.584Z,4.90
2019-03-19T05:29:26.719Z,5.20
2019-03-19T05:31:57.529Z,5.17
2019-03-19T05:34:28.377Z,5.13
2019-03-19T05:37:05.412Z,5.67
2019-03-19T05:39:37.025Z,5.00
2019-03-19T05:42:08.242Z,4.87
2019-03-19T05:44:39.264Z,5.47
2019-03-19T05:47:10.101Z,5.97
2019-03-19T05:49:41.006Z,6.10
2019-03-19T05:52:12.378Z,5.17
2019-03-19T05:54:43.296Z,5.03
2019-03-19T05:57:14.125Z,5.50
2019-03-19T05:59:46.838Z,6.43
2019-03-19T06:02:17.726Z,5.37
2019-03-19T06:04:48.668Z,5.13
2019-03-19T06:07:21.065Z,4.77
2019-03-19T06:09:53.453Z,5.60
2019-03-19T06:12:24.555Z,5.23
2019-03-19T06:14:55.373Z,5.10
2019-03-19T06:17:26.690Z,4.93
2019-03-19T06:19:57.500Z,4.50
2019-03-19T06:22:28.289Z,5.63
2019-03-19T06:24:59.101Z,5.07
2019-03-19T06:27:30.961Z,4.17
2019-03-19T06:30:01.775Z,3.70
2019-03-19T06:32:32.651Z,3.53
2019-03-19T06:35:03.876Z,5.37
2019-03-19T06:37:35.012Z,4.20
2019-03-19T06:40:06.849Z,4.10
2019-03-19T06:42:37.630Z,3.70
2019-03-19T06:45:09.828Z,3.07
2019-03-19T06:47:43.456Z,4.37
2019-03-19T06:50:14.921Z,4.40
2019-03-19T06:52:47.280Z,4.07
2019-03-19T06:55:18.299Z,3.80
2019-03-19T06:57:49.041Z,3.47
2019-03-19T07:00:24.293Z,3.50
2019-03-19T07:03:00.722Z,3.67
2019-03-19T07:05:31.136Z,3.47
2019-03-19T07:08:02.139Z,3.80
2019-03-19T07:10:33.244Z,3.87
2019-03-19T07:13:04.934Z,3.70
2019-03-19T07:15:35.772Z,3.97
2019-03-19T07:18:06.813Z,3.33
2019-03-19T07:20:37.654Z,4.10
2019-03-19T07:23:08.476Z,3.63
2019-03-19T07:25:39.573Z,3.70
2019-03-19T07:28:21.389Z,3.73
2019-03-19T07:30:43.005Z,3.83
2019-03-19T07:33:17.751Z,3.53
2019-03-19T07:35:49.119Z,4.43
2019-03-19T07:38:20.016Z,4.03
2019-03-19T07:40:50.951Z,3.90
2019-03-19T07:43:24.930Z,3.80
2019-03-19T07:45:56.655Z,4.23
2019-03-19T07:48:30.215Z,4.50
2019-03-19T07:51:03.902Z,3.97
2019-03-19T07:53:35.066Z,4.17
2019-03-19T07:56:17.763Z,3.67
2019-03-19T07:58:51.709Z,4.10
2019-03-19T08:01:30.423Z,3.50
2019-03-19T08:04:10.697Z,3.67
2019-03-19T08:06:41.492Z,3.10
2019-03-19T08:09:14.286Z,3.50
2019-03-19T08:11:45.142Z,3.17
2019-03-19T08:14:20.830Z,3.90
2019-03-19T08:16:53.292Z,3.60
2019-03-19T08:19:24.450Z,3.27
2019-03-19T08:21:58.306Z,3.10
2019-03-19T08:24:29.722Z,3.77
2019-03-19T08:27:00.831Z,3.83
2019-03-19T08:29:41.226Z,3.57
2019-03-19T08:32:17.306Z,3.57
2019-03-19T08:34:48.172Z,3.00
2019-03-19T08:37:20.949Z,3.00
2019-03-19T08:39:54.135Z,2.60
2019-03-19T08:42:29.645Z,3.30
2019-03-19T08:45:00.855Z,3.80
2019-03-19T08:47:31.676Z,3.43
2019-03-19T08:50:02.832Z,2.50
2019-03-19T08:52:33.933Z,3.97
2019-03-19T08:55:05.103Z,2.57
2019-03-19T08:57:38.880Z,2.87
2019-03-19T09:00:13.851Z,2.77
2019-03-19T09:03:01.635Z,3.00
2019-03-19T09:05:35.539Z,2.80
2019-03-19T09:08:10.124Z,3.37
2019-03-19T09:10:44.949Z,3.47
2019-03-19T09:13:16.198Z,2.90
2019-03-19T09:15:47.534Z,3.17
2019-03-19T09:18:25.150Z,3.30
2019-03-19T09:20:55.951Z,3.37
2019-03-19T09:23:27.251Z,2.73
2019-03-19T09:26:06.277Z,2.77
2019-03-19T09:28:40.406Z,3.87
2019-03-19T09:31:12.140Z,3.40
2019-03-19T09:33:46.744Z,3.50
2019-03-19T09:36:17.734Z,4.20
2019-03-19T09:38:49.716Z,4.63
2019-03-19T09:41:26.644Z,3.17
2019-03-19T09:44:05.141Z,3.17
2019-03-19T09:46:38.428Z,3.70
2019-03-19T09:49:09.254Z,3.53
2019-03-19T09:51:40.002Z,3.97
2019-03-19T09:54:11.149Z,5.40
2019-03-19T09:56:41.934Z,3.27
2019-03-19T09:59:13.374Z,3.60
2019-03-19T10:01:44.217Z,3.20
2019-03-19T10:05:06.348Z,7.60
2019-03-19T10:08:15.189Z,29.60
2019-03-19T10:10:55.572Z,58.77
2019-03-19T10:13:26.432Z,76.53
2019-03-19T10:15:57.644Z,32.20
2019-03-19T10:18:31.561Z,36.60
2019-03-19T10:21:11.257Z,51.47
2019-03-19T10:23:42.524Z,4.07
2019-03-19T10:26:17.095Z,2.70
2019-03-19T10:28:48.387Z,45.13
2019-03-19T10:31:19.365Z,6.37
2019-03-19T10:34:11.799Z,3.10
2019-03-19T10:36:59.109Z,3.30
2019-03-19T10:39:30.719Z,2.70
2019-03-19T10:42:01.631Z,2.60
2019-03-19T10:44:36.287Z,2.40
2019-03-19T10:47:16.200Z,2.70
2019-03-19T10:49:47.074Z,2.87
2019-03-19T10:52:19.690Z,2.10
2019-03-19T10:54:53.890Z,2.70
2019-03-19T10:57:28.086Z,3.60
2019-03-19T11:00:10.633Z,1.80
2019-03-19T11:02:41.523Z,2.20
2019-03-19T11:05:12.801Z,2.43
2019-03-19T11:07:47.148Z,2.03
2019-03-19T11:10:18.053Z,2.80
2019-03-19T11:12:50.442Z,1.97
2019-03-19T11:15:23.130Z,2.40
2019-03-19T11:17:59.278Z,2.13
2019-03-19T11:20:41.296Z,2.27
2019-03-19T11:23:16.164Z,2.40
2019-03-19T11:25:57.336Z,2.27
2019-03-19T11:28:34.265Z,2.10
2019-03-19T11:31:09.877Z,2.70
2019-03-19T11:33:41.340Z,2.10
2019-03-19T11:36:15.108Z,2.77
2019-03-19T11:38:50.349Z,2.03
2019-03-19T11:41:22.419Z,2.53
2019-03-19T11:43:55.735Z,1.80
2019-03-19T11:46:30.711Z,2.30
2019-03-19T11:49:01.516Z,1.90
2019-03-19T11:51:32.609Z,4.00
2019-03-19T11:54:09.383Z,2.03
2019-03-19T11:56:40.209Z,1.80
2019-03-19T11:59:12.654Z,3.10
2019-03-19T12:01:46.591Z,2.00
2019-03-19T12:04:17.420Z,2.10
2019-03-19T12:06:48.335Z,2.50
2019-03-19T12:09:22.557Z,2.00
2019-03-19T12:11:54.475Z,1.90
2019-03-19T12:14:25.245Z,1.80
2019-03-19T12:16:57.552Z,2.33
2019-03-19T12:19:30.649Z,2.40
2019-03-19T12:22:01.533Z,2.20
2019-03-19T12:24:35.895Z,2.10
2019-03-19T12:27:13.209Z,2.30
2019-03-19T12:29:46.701Z,2.50
2019-03-19T12:32:20.618Z,1.73
2019-03-19T12:34:51.914Z,2.20
2019-03-19T12:37:26.547Z,2.17
2019-03-19T12:40:03.877Z,2.30
2019-03-19T12:42:36.438Z,2.40
2019-03-19T12:45:08.772Z,2.30
2019-03-19T12:47:47.885Z,2.10
2019-03-19T12:50:27.315Z,2.30
2019-03-19T12:53:01.604Z,1.63
2019-03-19T12:55:32.408Z,1.90
2019-03-19T12:58:06.459Z,2.70
2019-03-19T13:00:38.421Z,1.80
2019-03-19T13:03:09.822Z,1.87
2019-03-19T13:05:41.425Z,1.90
2019-03-19T13:08:13.357Z,2.57
2019-03-19T13:10:44.158Z,1.80
2019-03-19T13:13:17.440Z,1.80
2019-03-19T13:15:48.998Z,2.90
2019-03-19T13:18:21.430Z,2.30
2019-03-19T13:20:53.669Z,1.77
2019-03-19T13:23:26.247Z,1.63
2019-03-19T13:25:57.142Z,2.20
2019-03-19T13:28:29.312Z,1.83
2019-03-19T13:31:03.229Z,2.00
2019-03-19T13:33:35.260Z,2.20
2019-03-19T13:36:09.653Z,2.10
2019-03-19T13:38:40.513Z,2.00
2019-03-19T13:41:17.661Z,1.80
2019-03-19T13:43:50.761Z,2.00
2019-03-19T13:46:21.613Z,2.23
2019-03-19T13:48:55.388Z,1.87
2019-03-19T13:51:31.968Z,10.83
2019-03-19T13:54:03.152Z,2.07
2019-03-19T13:56:34.412Z,2.00
2019-03-19T13:59:05.419Z,1.97
2019-03-19T14:01:37.795Z,2.00
2019-03-19T14:04:08.601Z,2.17
2019-03-19T14:06:42.180Z,1.70
2019-03-19T14:09:23.662Z,1.77
2019-03-19T14:11:54.662Z,1.90
2019-03-19T14:14:25.943Z,1.80
2019-03-19T14:16:59.361Z,2.10
2019-03-19T14:19:30.526Z,2.63
2019-03-19T14:22:01.376Z,2.37
2019-03-19T14:24:32.683Z,2.20
2019-03-19T14:27:03.493Z,2.10
2019-03-19T14:29:53.364Z,2.43
2019-03-19T14:32:28.621Z,1.87
2019-03-19T14:35:02.058Z,1.90
2019-03-19T14:37:33.239Z,1.60
2019-03-19T14:40:04.127Z,2.40
2019-03-19T14:42:41.967Z,2.07
2019-03-19T14:45:16.426Z,2.27
2019-03-19T14:47:47.268Z,2.40
2019-03-19T14:50:26.379Z,2.00
2019-03-19T14:52:58.011Z,1.97
2019-03-19T14:55:29.280Z,3.30
2019-03-19T14:58:00.617Z,3.47
2019-03-19T15:00:35.309Z,3.07
2019-03-19T15:03:08.172Z,2.17
2019-03-19T15:05:39.168Z,1.90
2019-03-19T15:08:11.958Z,1.70
2019-03-19T15:11:02.194Z,1.50
2019-03-19T15:13:55.325Z,1.40
2019-03-19T15:16:49.122Z,1.67
2019-03-19T15:19:22.359Z,1.90
2019-03-19T15:21:59.320Z,1.90
2019-03-19T15:24:33.937Z,2.00
2019-03-19T15:27:08.450Z,1.87
2019-03-19T15:29:39.808Z,1.83
2019-03-19T15:32:13.843Z,1.60
2019-03-19T15:34:46.541Z,1.87
2019-03-19T15:37:26.946Z,1.87
2019-03-19T15:40:01.911Z,1.90
2019-03-19T15:42:33.385Z,1.77
2019-03-19T15:45:07.512Z,1.80
2019-03-19T15:47:39.687Z,2.10
2019-03-19T15:50:12.890Z,1.90
2019-03-19T15:52:46.606Z,2.10
2019-03-19T15:55:17.504Z,1.73
2019-03-19T15:57:55.762Z,1.93
2019-03-19T16:00:27.199Z,1.73
2019-03-19T16:02:59.840Z,1.70
2019-03-19T16:05:31.104Z,2.27
2019-03-19T16:08:07.926Z,1.70
2019-03-19T16:10:51.089Z,1.70
2019-03-19T16:13:23.897Z,1.67
2019-03-19T16:15:58.012Z,1.63
2019-03-19T16:18:30.162Z,1.63
2019-03-19T16:21:01.379Z,1.70
2019-03-19T16:23:40.976Z,2.00
2019-03-19T16:26:11.767Z,1.80
2019-03-19T16:28:46.097Z,1.90
2019-03-19T16:31:17.212Z,2.30
2019-03-19T16:33:52.043Z,1.97
2019-03-19T16:36:23.277Z,2.00
2019-03-19T16:38:55.962Z,2.10
2019-03-19T16:41:32.335Z,1.97
2019-03-19T16:44:09.262Z,2.20
2019-03-19T16:46:41.614Z,1.73
2019-03-19T16:49:14.966Z,2.10
2019-03-19T16:51:49.559Z,2.10
2019-03-19T16:54:20.495Z,2.00
2019-03-19T16:56:54.517Z,2.27
2019-03-19T16:59:26.808Z,1.87
2019-03-19T17:02:01.683Z,1.93
2019-03-19T17:04:35.751Z,1.93
2019-03-19T17:07:12.554Z,1.90
2019-03-19T17:09:50.861Z,2.83
2019-03-19T17:12:30.645Z,2.67
2019-03-19T17:15:01.759Z,2.17
2019-03-19T17:17:32.891Z,1.93
2019-03-19T17:20:04.211Z,1.87
2019-03-19T17:22:35.524Z,2.00
2019-03-19T17:25:10.263Z,1.80
2019-03-19T17:27:47.383Z,1.97
2019-03-19T17:30:25.137Z,1.93
2019-03-19T17:33:01.444Z,2.10
2019-03-19T17:35:32.222Z,2.20
2019-03-19T17:38:08.803Z,2.47
2019-03-19T17:40:41.907Z,2.30
2019-03-19T17:43:14.230Z,2.23
2019-03-19T17:45:45.984Z,2.73
2019-03-19T17:48:21.385Z,2.63
2019-03-19T17:50:58.626Z,2.43
2019-03-19T17:53:29.651Z,3.43
2019-03-19T17:56:09.917Z,2.70
2019-03-19T17:58:41.667Z,2.43
2019-03-19T18:01:17.422Z,2.53
2019-03-19T18:03:48.111Z,2.30
2019-03-19T18:06:20.119Z,2.33
2019-03-19T18:08:52.265Z,2.20
2019-03-19T18:11:25.376Z,1.90
2019-03-19T18:13:58.443Z,2.70
2019-03-19T18:16:30.050Z,2.30
2019-03-19T18:19:02.388Z,2.57
2019-03-19T18:21:33.507Z,2.30
2019-03-19T18:24:10.102Z,2.23
2019-03-19T18:26:48.503Z,2.97
2019-03-19T18:29:20.697Z,2.60
2019-03-19T18:31:57.326Z,2.33
2019-03-19T18:34:28.495Z,2.30
2019-03-19T18:36:59.585Z,2.70
2019-03-19T18:39:31.038Z,2.20
2019-03-19T18:42:02.110Z,2.50
2019-03-19T18:44:33.039Z,2.10
2019-03-19T18:47:04.295Z,2.73
2019-03-19T18:49:35.093Z,2.17
2019-03-19T18:52:06.361Z,1.80
2019-03-19T18:54:43.588Z,1.87
2019-03-19T18:57:16.597Z,3.37
2019-03-19T18:59:52.292Z,1.67
2019-03-19T19:02:25.112Z,2.20
2019-03-19T19:04:59.778Z,2.30
2019-03-19T19:07:42.192Z,1.93
2019-03-19T19:10:16.530Z,2.30
2019-03-19T19:12:52.194Z,2.27
2019-03-19T19:15:25.081Z,2.33
2019-03-19T19:17:56.379Z,2.57
2019-03-19T19:20:32.606Z,2.10
2019-03-19T19:23:03.562Z,2.03
2019-03-19T19:25:35.015Z,2.20
2019-03-19T19:28:05.866Z,1.77
2019-03-19T19:30:43.520Z,1.83
2019-03-19T19:33:18.137Z,2.27
2019-03-19T19:35:54.330Z,2.13
2019-03-19T19:38:35.472Z,2.37
2019-03-19T19:41:13.076Z,2.53
2019-03-19T19:43:53.162Z,2.13
2019-03-19T19:46:24.413Z,2.20
2019-03-19T19:48:57.693Z,2.87
2019-03-19T19:51:28.556Z,2.00
2019-03-19T19:54:04.036Z,2.03
2019-03-19T19:56:46.735Z,2.43
2019-03-19T19:59:26.391Z,2.30
2019-03-19T20:02:29.640Z,2.10
2019-03-19T20:05:05.827Z,2.07
2019-03-19T20:07:49.195Z,2.60
2019-03-19T20:10:29.087Z,4.67
2019-03-19T20:13:00.230Z,5.80
2019-03-19T20:15:39.454Z,5.50
2019-03-19T20:18:12.266Z,6.57
2019-03-19T20:20:51.076Z,5.27
2019-03-19T20:23:25.203Z,5.03
2019-03-19T20:26:00.043Z,5.03
2019-03-19T20:28:33.366Z,2.80
2019-03-19T20:31:11.410Z,2.23
2019-03-19T20:33:49.777Z,2.53
2019-03-19T20:36:30.647Z,2.57
2019-03-19T20:39:01.744Z,2.27
2019-03-19T20:41:36.535Z,2.23
2019-03-19T20:44:09.630Z,2.00
2019-03-19T20:46:41.121Z,2.30
2019-03-19T20:49:15.705Z,2.33
2019-03-19T20:51:54.507Z,2.57
2019-03-19T20:54:25.299Z,2.13
2019-03-19T20:57:16.053Z,2.53
2019-03-19T20:59:59.355Z,2.63
2019-03-19T21:02:33.829Z,2.73
2019-03-19T21:05:08.091Z,2.53
2019-03-19T21:07:40.976Z,2.30
2019-03-19T21:10:14.324Z,3.13
2019-03-19T21:12:45.764Z,2.53
2019-03-19T21:15:28.998Z,2.73
2019-03-19T21:18:00.194Z,3.40
2019-03-19T21:20:31.328Z,2.77
2019-03-19T21:23:02.779Z,3.60
2019-03-19T21:25:36.190Z,4.20
2019-03-19T21:28:14.451Z,5.23
2019-03-19T21:30:46.747Z,4.77
2019-03-19T21:33:17.971Z,4.83
2019-03-19T21:35:49.598Z,5.20
2019-03-19T21:38:21.530Z,5.30
2019-03-19T21:40:55.895Z,6.23
2019-03-19T21:43:27.081Z,5.30
2019-03-19T21:46:02.561Z,5.80
2019-03-19T21:48:33.846Z,6.27
2019-03-19T21:51:11.662Z,5.00
2019-03-19T21:53:46.868Z,4.57
2019-03-19T21:56:23.138Z,2.77
2019-03-19T21:59:03.001Z,3.10
2019-03-19T22:01:38.400Z,2.87
2019-03-19T22:04:10.637Z,3.13
2019-03-19T22:06:48.029Z,2.93
2019-03-19T22:09:24.177Z,2.80
2019-03-19T22:11:57.350Z,3.43
2019-03-19T22:14:30.325Z,2.80
2019-03-19T22:17:01.479Z,2.80
2019-03-19T22:19:32.827Z,2.80
2019-03-19T22:22:09.403Z,3.20
2019-03-19T22:24:42.768Z,3.57
2019-03-19T22:27:13.550Z,3.77
2019-03-19T22:29:51.274Z,3.07
2019-03-19T22:32:22.184Z,3.33
2019-03-19T22:34:53.204Z,3.90
2019-03-19T22:37:27.975Z,3.60
2019-03-19T22:39:58.760Z,3.23
2019-03-19T22:42:29.562Z,2.73
2019-03-19T22:45:02.618Z,2.33
2019-03-19T22:47:34.833Z,2.30
2019-03-19T22:50:05.795Z,2.93
2019-03-19T22:52:42.356Z,3.00
2019-03-19T22:55:15.998Z,2.87
2019-03-19T22:57:47.882Z,3.33
2019-03-19T23:00:37.495Z,3.10
2019-03-19T23:03:12.321Z,3.60
2019-03-19T23:05:43.148Z,3.80
2019-03-19T23:08:14.765Z,4.13
2019-03-19T23:10:48.806Z,3.77
2019-03-19T23:13:19.720Z,4.07
2019-03-19T23:15:50.962Z,4.27
2019-03-19T23:18:21.797Z,3.83
2019-03-19T23:20:52.703Z,4.50
2019-03-19T23:23:23.512Z,4.10
2019-03-19T23:25:58.003Z,4.20
2019-03-19T23:28:28.893Z,4.17
2019-03-19T23:30:59.720Z,4.67
2019-03-19T23:33:30.556Z,4.10
2019-03-19T23:36:01.308Z,4.30
2019-03-19T23:38:35.365Z,4.37
2019-03-19T23:41:06.644Z,3.73
2019-03-19T23:43:40.378Z,4.00
2019-03-19T23:46:11.282Z,4.23
2019-03-19T23:48:43.358Z,3.63
2019-03-19T23:51:14.421Z,4.50
2019-03-19T23:53:45.503Z,4.73
2019-03-19T23:56:19.618Z,4.10
2019-03-19T23:58:50.546Z,3.83
